Marchen Maersk — OUIY2 — position and weather

sailwx.info

Track history (hours):
 
Tides and Currents Weather Stations Pressure Air Temp Water Temp Dewpoint Dewpoint Depression Visibility Wind Speed Wind Dir Waves Ship Positions

Marchen Maersk

Last reported at 2016-Aug-25 10:28 UTC. Time now 2016-Aug-25 11:27 UTC.
Position N 38°11' W 124°39'.

Length 367 m; draft 14 m.

Type: Ship (hazmat cat A). MMSI: 220594000.

Date/timePositionNaut miles runAvg speedWind from/ knotsBaromVisibWave heightAir tempDewpointWater temp
2016-Aug-25 10:28N 38°11' W 124°39'1112.0
2016-Aug-25 09:33N 38°11' W 124°25'1212.1
2016-Aug-25 08:33N 38°11' W 124°10'1212.0
2016-Aug-25 07:33N 38°11' W 123°55'1111.3
2016-Aug-25 06:33N 38°11' W 123°40'2110.3
2016-Aug-25 04:33N 38°05' W 123°15'1211.5
2016-Aug-25 03:33N 37°57' W 123°05'1211.9
2016-Aug-25 02:33N 37°51' W 122°52'1010.3
2016-Aug-25 01:33N 37°45' W 122°41'1413.6
2016-Aug-25 00:34N 37°51' W 122°25'6 5.6
2016-Aug-24 23:32N 37°48' W 122°19'0 0.0
2016-Aug-24 22:32N 37°48' W 122°19'0 0.0
2016-Aug-24 21:32N 37°48' W 122°19'0 0.0
2016-Aug-24 20:32N 37°48' W 122°19'0 0.0
2016-Aug-24 19:32N 37°48' W 122°19'0 0.0
2016-Aug-24 18:32N 37°48' W 122°19'0 0.0
2016-Aug-24 17:32N 37°48' W 122°19'0 0.0
2016-Aug-24 16:32N 37°48' W 122°19'0 0.0
2016-Aug-24 15:32N 37°48' W 122°19'0 0.0
2016-Aug-24 14:32N 37°48' W 122°19'0 0.0
2016-Aug-24 13:29N 37°48' W 122°19'0 0.0
2016-Aug-24 12:32N 37°48' W 122°19'0 0.0
2016-Aug-24 11:32N 37°48' W 122°19'0 0.0
2016-Aug-24 10:32N 37°48' W 122°19'0 0.0
2016-Aug-24 09:32N 37°48' W 122°19'0 0.0
2016-Aug-24 08:32N 37°48' W 122°19'0 0.0
2016-Aug-24 07:32N 37°48' W 122°19'0 0.0
2016-Aug-24 06:32N 37°48' W 122°19'0 0.0
2016-Aug-24 04:32N 37°48' W 122°19'0 0.0
2016-Aug-24 03:32N 37°48' W 122°19'0 0.0
2016-Aug-24 02:32N 37°48' W 122°19'0 0.0
2016-Aug-24 01:32N 37°48' W 122°19'0 0.0
2016-Aug-24 00:32N 37°48' W 122°19'0 0.0
2016-Aug-23 23:32N 37°48' W 122°19'0 0.0
2016-Aug-23 22:32N 37°48' W 122°19'0 0.0
2016-Aug-23 21:32N 37°48' W 122°19'0 0.0
2016-Aug-23 20:33N 37°48' W 122°19'0 0.3
2016-Aug-23 19:34N 37°48' W 122°18'0 0.3
2016-Aug-23 18:33N 37°48' W 122°19'6 5.8
2016-Aug-23 17:34N 37°50' W 122°25'1212.0
2016-Aug-23 16:33N 37°45' W 122°39'1010.1
2016-Aug-23 15:33N 37°35' W 122°40'1313.5
2016-Aug-23 14:33N 37°22' W 122°40'1413.7
2016-Aug-23 13:33N 37°08' W 122°38'1413.9
2016-Aug-23 12:33N 36°55' W 122°31'1515.1
2016-Aug-23 11:33N 36°41' W 122°24'1514.9
2016-Aug-23 10:33N 36°28' W 122°17'1515.3
2016-Aug-23 09:33N 36°14' W 122°09'1615.6
2016-Aug-23 08:33N 36°00' W 121°60'1515.5
2016-Aug-23 07:33N 35°47' W 121°50'1515.2
2016-Aug-23 06:33N 35°33' W 121°43'1514.6
2016-Aug-23 05:33N 35°20' W 121°34'1414.3
2016-Aug-23 04:33N 35°08' W 121°26'1414.2
2016-Aug-23 03:33N 34°55' W 121°18'1414.4
2016-Aug-23 02:33N 34°42' W 121°10'1414.5
2016-Aug-23 01:33N 34°30' W 121°01'3514.1
2016-Aug-22 23:04N 34°19' W 120°20'1114.8
2016-Aug-22 22:20N 34°16' W 120°07'1114.8
2016-Aug-22 21:33N 34°13' W 119°54'1514.8
2016-Aug-22 20:33N 34°09' W 119°37'1514.9
2016-Aug-22 19:31N 34°05' W 119°19'1415.0
2016-Aug-22 18:33N 33°59' W 119°03'10 9.9
2016-Aug-22 17:34N 33°54' W 118°53'6 6.4
2016-Aug-22 16:34N 33°50' W 118°46'1211.6
2016-Aug-22 15:34N 33°45' W 118°34'1211.7
2016-Aug-22 14:34N 33°39' W 118°22'9 9.2
2016-Aug-22 13:33N 33°42' W 118°11'4 3.9
2016-Aug-22 12:33N 33°45' W 118°14'0 0.5
2016-Aug-22 11:33N 33°45' W 118°14'0 0.0
2016-Aug-22 10:33N 33°45' W 118°14'0 0.0
2016-Aug-22 09:33N 33°45' W 118°14'0 0.0
2016-Aug-22 08:33N 33°45' W 118°14'0 0.0
2016-Aug-22 07:33N 33°45' W 118°14'0 0.0
2016-Aug-22 06:33N 33°45' W 118°14'0 0.0
2016-Aug-22 05:33N 33°45' W 118°14'0 0.0
2016-Aug-22 04:33N 33°45' W 118°14'0 0.0
2016-Aug-22 03:33N 33°45' W 118°14'0 0.0
2016-Aug-22 02:33N 33°45' W 118°14'0 0.0
2016-Aug-22 01:30N 33°45' W 118°14'0 0.0
2016-Aug-22 00:33N 33°45' W 118°14'0 0.0
2016-Aug-21 23:33N 33°45' W 118°14'0 0.0
2016-Aug-21 22:33N 33°45' W 118°14'0 0.0
2016-Aug-21 21:33N 33°45' W 118°14'0 0.0
2016-Aug-21 20:33N 33°45' W 118°14'0 0.0
2016-Aug-21 19:33N 33°45' W 118°14'0 0.0
2016-Aug-21 18:30N 33°45' W 118°14'0 0.0
2016-Aug-21 17:33N 33°45' W 118°14'0 0.0
2016-Aug-21 16:33N 33°45' W 118°14'0 0.0
2016-Aug-21 15:30N 33°45' W 118°14'0 0.0
2016-Aug-21 14:33N 33°45' W 118°14'0 0.0
2016-Aug-21 13:33N 33°45' W 118°14'0 0.0
2016-Aug-21 12:30N 33°45' W 118°14'0 0.0
2016-Aug-21 11:33N 33°45' W 118°14'0 0.0
2016-Aug-21 10:33N 33°45' W 118°14'0 0.0
2016-Aug-21 09:33N 33°45' W 118°14'0 0.0
2016-Aug-21 08:33N 33°45' W 118°14'0 0.0
2016-Aug-21 07:24N 33°45' W 118°14'0 0.0
2016-Aug-21 06:33N 33°45' W 118°14'0 0.0
2016-Aug-21 05:30N 33°45' W 118°14'0 0.0
2016-Aug-21 04:33N 33°45' W 118°14'0 0.0
2016-Aug-21 03:33N 33°45' W 118°14'0 0.0
2016-Aug-21 02:27N 33°45' W 118°14'0 0.0
2016-Aug-21 01:33N 33°45' W 118°14'0 0.0
2016-Aug-21 00:33N 33°45' W 118°14'0 0.0
2016-Aug-20 23:33N 33°45' W 118°14'0 0.0
2016-Aug-20 22:33N 33°45' W 118°14'0 0.0
2016-Aug-20 21:30N 33°45' W 118°14'0 0.0
2016-Aug-20 20:30N 33°45' W 118°14'0 0.0
2016-Aug-20 19:33N 33°45' W 118°14'0 0.0
2016-Aug-20 18:21N 33°45' W 118°14'0 0.0
2016-Aug-20 17:33N 33°45' W 118°14'0 0.0
2016-Aug-20 16:18N 33°45' W 118°14'0 0.0
2016-Aug-20 15:33N 33°45' W 118°14'0 0.0
2016-Aug-20 14:33N 33°45' W 118°14'0 0.0
2016-Aug-20 13:30N 33°45' W 118°14'0 0.0
2016-Aug-20 12:27N 33°45' W 118°14'0 0.0
2016-Aug-20 11:33N 33°45' W 118°14'0 0.0
2016-Aug-20 10:27N 33°45' W 118°14'0 0.0
2016-Aug-20 09:30N 33°45' W 118°14'0 0.0
2016-Aug-20 08:30N 33°45' W 118°14'0 0.0
2016-Aug-20 07:33N 33°45' W 118°14'0 0.0
2016-Aug-20 06:30N 33°45' W 118°14'0 0.0
2016-Aug-20 05:24N 33°45' W 118°14'0 0.0
2016-Aug-20 04:33N 33°45' W 118°14'0 0.0
2016-Aug-20 03:30N 33°45' W 118°14'0 0.0
2016-Aug-20 02:33N 33°45' W 118°14'0 0.0
2016-Aug-20 01:33N 33°45' W 118°14'0 0.0
2016-Aug-20 00:33N 33°45' W 118°14'0 0.0
2016-Aug-19 23:33N 33°45' W 118°14'0 0.0
2016-Aug-19 22:33N 33°45' W 118°14'0 0.0
2016-Aug-19 21:33N 33°45' W 118°14'0 0.0
2016-Aug-19 20:33N 33°45' W 118°14'0 0.0
2016-Aug-19 19:33N 33°45' W 118°14'0 0.0
2016-Aug-19 18:33N 33°45' W 118°14'0 0.0
2016-Aug-19 17:33N 33°45' W 118°14'0 0.0
2016-Aug-19 16:33N 33°45' W 118°14'0 0.0
2016-Aug-19 15:33N 33°45' W 118°14'0 0.0
2016-Aug-19 14:33N 33°45' W 118°14'0 0.0
2016-Aug-19 13:33N 33°45' W 118°14'0 0.0
2016-Aug-19 12:33N 33°45' W 118°14'0 0.0
2016-Aug-19 11:33N 33°45' W 118°14'0 0.0
2016-Aug-19 10:30N 33°45' W 118°14'0 0.0
2016-Aug-19 09:33N 33°45' W 118°14'0 0.0
2016-Aug-19 08:33N 33°45' W 118°14'0 0.0
2016-Aug-19 07:33N 33°45' W 118°14'0 0.0
2016-Aug-19 06:33N 33°45' W 118°14'0 0.0
2016-Aug-19 05:33N 33°45' W 118°14'0 0.0
2016-Aug-19 04:33N 33°45' W 118°14'0 0.0
2016-Aug-19 03:30N 33°45' W 118°14'0 0.0
2016-Aug-19 02:33N 33°45' W 118°14'0 0.0
2016-Aug-19 01:33N 33°45' W 118°14'0 0.0
2016-Aug-19 00:27N 33°45' W 118°14'0 0.0
2016-Aug-18 23:30N 33°45' W 118°14'0 0.0
2016-Aug-18 22:33N 33°45' W 118°14'0 0.0
2016-Aug-18 21:27N 33°45' W 118°14'0 0.0
2016-Aug-18 20:33N 33°45' W 118°14'0 0.0
2016-Aug-18 19:33N 33°45' W 118°14'0 0.0
2016-Aug-18 18:27N 33°45' W 118°14'0 0.0
2016-Aug-18 17:24N 33°45' W 118°14'0 0.0
2016-Aug-18 16:24N 33°45' W 118°14'0 0.0
2016-Aug-18 15:33N 33°45' W 118°14'0 0.0
2016-Aug-18 14:33N 33°45' W 118°14'0 0.0
2016-Aug-18 13:33N 33°45' W 118°14'0 0.0
2016-Aug-18 12:30N 33°45' W 118°14'0 0.0
2016-Aug-18 11:27N 33°45' W 118°14'1 1.4
2016-Aug-18 10:33N 33°45' W 118°13'6 6.4
2016-Aug-18 09:33N 33°38' W 118°12'9 8.9
2016-Aug-18 08:33N 33°37' W 118°22'1010.2
2016-Aug-18 07:34N 33°42' W 118°33'1110.6
2016-Aug-18 06:33N 33°47' W 118°44'1616.0
2016-Aug-18 05:34N 33°55' W 119°01'1919.1
2016-Aug-18 04:34N 34°04' W 119°21'1919.3
2016-Aug-18 03:33N 34°09' W 119°44'3919.4
2016-Aug-18 01:33N 34°19' W 120°29'2619.8
2016-Aug-18 00:15N 34°26' W 120°59'1419.4
2016-Aug-17 23:32N 34°26' W 121°16'1919.8
2016-Aug-17 22:33N 34°26' W 121°40'  
Track history (hours):
 
Tides and Currents Weather Stations Pressure Air Temp Water Temp Dewpoint Dewpoint Depression Visibility Wind Speed Wind Dir Waves Ship Positions

Marchen Maersk

Last reported at 2016-Aug-25 10:28 UTC. Time now 2016-Aug-25 11:27 UTC.
Position N 38°11' W 124°39'.

Length 367 m; draft 14 m.

Type: Ship (hazmat cat A). MMSI: 220594000.

Date/timePositionNaut miles runAvg speedWind from/ knotsBaromVisibWave heightAir tempDewpointWater temp
2016-Aug-25 10:28N 38°11' W 124°39'1112.0
2016-Aug-25 09:33N 38°11' W 124°25'1212.1
2016-Aug-25 08:33N 38°11' W 124°10'1212.0
2016-Aug-25 07:33N 38°11' W 123°55'1111.3
2016-Aug-25 06:33N 38°11' W 123°40'2110.3
2016-Aug-25 04:33N 38°05' W 123°15'1211.5
2016-Aug-25 03:33N 37°57' W 123°05'1211.9
2016-Aug-25 02:33N 37°51' W 122°52'1010.3
2016-Aug-25 01:33N 37°45' W 122°41'1413.6
2016-Aug-25 00:34N 37°51' W 122°25'6 5.6
2016-Aug-24 23:32N 37°48' W 122°19'0 0.0
2016-Aug-24 22:32N 37°48' W 122°19'0 0.0
2016-Aug-24 21:32N 37°48' W 122°19'0 0.0
2016-Aug-24 20:32N 37°48' W 122°19'0 0.0
2016-Aug-24 19:32N 37°48' W 122°19'0 0.0
2016-Aug-24 18:32N 37°48' W 122°19'0 0.0
2016-Aug-24 17:32N 37°48' W 122°19'0 0.0
2016-Aug-24 16:32N 37°48' W 122°19'0 0.0
2016-Aug-24 15:32N 37°48' W 122°19'0 0.0
2016-Aug-24 14:32N 37°48' W 122°19'0 0.0
2016-Aug-24 13:29N 37°48' W 122°19'0 0.0
2016-Aug-24 12:32N 37°48' W 122°19'0 0.0
2016-Aug-24 11:32N 37°48' W 122°19'0 0.0
2016-Aug-24 10:32N 37°48' W 122°19'0 0.0
2016-Aug-24 09:32N 37°48' W 122°19'0 0.0
2016-Aug-24 08:32N 37°48' W 122°19'0 0.0
2016-Aug-24 07:32N 37°48' W 122°19'0 0.0
2016-Aug-24 06:32N 37°48' W 122°19'0 0.0
2016-Aug-24 04:32N 37°48' W 122°19'0 0.0
2016-Aug-24 03:32N 37°48' W 122°19'0 0.0
2016-Aug-24 02:32N 37°48' W 122°19'0 0.0
2016-Aug-24 01:32N 37°48' W 122°19'0 0.0
2016-Aug-24 00:32N 37°48' W 122°19'0 0.0
2016-Aug-23 23:32N 37°48' W 122°19'0 0.0
2016-Aug-23 22:32N 37°48' W 122°19'0 0.0
2016-Aug-23 21:32N 37°48' W 122°19'0 0.0
2016-Aug-23 20:33N 37°48' W 122°19'0 0.3
2016-Aug-23 19:34N 37°48' W 122°18'0 0.3
2016-Aug-23 18:33N 37°48' W 122°19'6 5.8
2016-Aug-23 17:34N 37°50' W 122°25'1212.0
2016-Aug-23 16:33N 37°45' W 122°39'1010.1
2016-Aug-23 15:33N 37°35' W 122°40'1313.5
2016-Aug-23 14:33N 37°22' W 122°40'1413.7
2016-Aug-23 13:33N 37°08' W 122°38'1413.9
2016-Aug-23 12:33N 36°55' W 122°31'1515.1
2016-Aug-23 11:33N 36°41' W 122°24'1514.9
2016-Aug-23 10:33N 36°28' W 122°17'1515.3
2016-Aug-23 09:33N 36°14' W 122°09'1615.6
2016-Aug-23 08:33N 36°00' W 121°60'1515.5
2016-Aug-23 07:33N 35°47' W 121°50'1515.2
2016-Aug-23 06:33N 35°33' W 121°43'1514.6
2016-Aug-23 05:33N 35°20' W 121°34'1414.3
2016-Aug-23 04:33N 35°08' W 121°26'1414.2
2016-Aug-23 03:33N 34°55' W 121°18'1414.4
2016-Aug-23 02:33N 34°42' W 121°10'1414.5
2016-Aug-23 01:33N 34°30' W 121°01'3514.1
2016-Aug-22 23:04N 34°19' W 120°20'1114.8
2016-Aug-22 22:20N 34°16' W 120°07'1114.8
2016-Aug-22 21:33N 34°13' W 119°54'1514.8
2016-Aug-22 20:33N 34°09' W 119°37'1514.9
2016-Aug-22 19:31N 34°05' W 119°19'1415.0
2016-Aug-22 18:33N 33°59' W 119°03'10 9.9
2016-Aug-22 17:34N 33°54' W 118°53'6 6.4
2016-Aug-22 16:34N 33°50' W 118°46'1211.6
2016-Aug-22 15:34N 33°45' W 118°34'1211.7
2016-Aug-22 14:34N 33°39' W 118°22'9 9.2
2016-Aug-22 13:33N 33°42' W 118°11'4 3.9
2016-Aug-22 12:33N 33°45' W 118°14'0 0.5
2016-Aug-22 11:33N 33°45' W 118°14'0 0.0
2016-Aug-22 10:33N 33°45' W 118°14'0 0.0
2016-Aug-22 09:33N 33°45' W 118°14'0 0.0
2016-Aug-22 08:33N 33°45' W 118°14'0 0.0
2016-Aug-22 07:33N 33°45' W 118°14'0 0.0
2016-Aug-22 06:33N 33°45' W 118°14'0 0.0
2016-Aug-22 05:33N 33°45' W 118°14'0 0.0
2016-Aug-22 04:33N 33°45' W 118°14'0 0.0
2016-Aug-22 03:33N 33°45' W 118°14'0 0.0
2016-Aug-22 02:33N 33°45' W 118°14'0 0.0
2016-Aug-22 01:30N 33°45' W 118°14'0 0.0
2016-Aug-22 00:33N 33°45' W 118°14'0 0.0
2016-Aug-21 23:33N 33°45' W 118°14'0 0.0
2016-Aug-21 22:33N 33°45' W 118°14'0 0.0
2016-Aug-21 21:33N 33°45' W 118°14'0 0.0
2016-Aug-21 20:33N 33°45' W 118°14'0 0.0
2016-Aug-21 19:33N 33°45' W 118°14'0 0.0
2016-Aug-21 18:30N 33°45' W 118°14'0 0.0
2016-Aug-21 17:33N 33°45' W 118°14'0 0.0
2016-Aug-21 16:33N 33°45' W 118°14'0 0.0
2016-Aug-21 15:30N 33°45' W 118°14'0 0.0
2016-Aug-21 14:33N 33°45' W 118°14'0 0.0
2016-Aug-21 13:33N 33°45' W 118°14'0 0.0
2016-Aug-21 12:30N 33°45' W 118°14'0 0.0
2016-Aug-21 11:33N 33°45' W 118°14'0 0.0
2016-Aug-21 10:33N 33°45' W 118°14'0 0.0
2016-Aug-21 09:33N 33°45' W 118°14'0 0.0
2016-Aug-21 08:33N 33°45' W 118°14'0 0.0
2016-Aug-21 07:24N 33°45' W 118°14'0 0.0
2016-Aug-21 06:33N 33°45' W 118°14'0 0.0
2016-Aug-21 05:30N 33°45' W 118°14'0 0.0
2016-Aug-21 04:33N 33°45' W 118°14'0 0.0
2016-Aug-21 03:33N 33°45' W 118°14'0 0.0
2016-Aug-21 02:27N 33°45' W 118°14'0 0.0
2016-Aug-21 01:33N 33°45' W 118°14'0 0.0
2016-Aug-21 00:33N 33°45' W 118°14'0 0.0
2016-Aug-20 23:33N 33°45' W 118°14'0 0.0
2016-Aug-20 22:33N 33°45' W 118°14'0 0.0
2016-Aug-20 21:30N 33°45' W 118°14'0 0.0
2016-Aug-20 20:30N 33°45' W 118°14'0 0.0
2016-Aug-20 19:33N 33°45' W 118°14'0 0.0
2016-Aug-20 18:21N 33°45' W 118°14'0 0.0
2016-Aug-20 17:33N 33°45' W 118°14'0 0.0
2016-Aug-20 16:18N 33°45' W 118°14'0 0.0
2016-Aug-20 15:33N 33°45' W 118°14'0 0.0
2016-Aug-20 14:33N 33°45' W 118°14'0 0.0
2016-Aug-20 13:30N 33°45' W 118°14'0 0.0
2016-Aug-20 12:27N 33°45' W 118°14'0 0.0
2016-Aug-20 11:33N 33°45' W 118°14'0 0.0
2016-Aug-20 10:27N 33°45' W 118°14'0 0.0
2016-Aug-20 09:30N 33°45' W 118°14'0 0.0
2016-Aug-20 08:30N 33°45' W 118°14'0 0.0
2016-Aug-20 07:33N 33°45' W 118°14'0 0.0
2016-Aug-20 06:30N 33°45' W 118°14'0 0.0
2016-Aug-20 05:24N 33°45' W 118°14'0 0.0
2016-Aug-20 04:33N 33°45' W 118°14'0 0.0
2016-Aug-20 03:30N 33°45' W 118°14'0 0.0
2016-Aug-20 02:33N 33°45' W 118°14'0 0.0
2016-Aug-20 01:33N 33°45' W 118°14'0 0.0
2016-Aug-20 00:33N 33°45' W 118°14'0 0.0
2016-Aug-19 23:33N 33°45' W 118°14'0 0.0
2016-Aug-19 22:33N 33°45' W 118°14'0 0.0
2016-Aug-19 21:33N 33°45' W 118°14'0 0.0
2016-Aug-19 20:33N 33°45' W 118°14'0 0.0
2016-Aug-19 19:33N 33°45' W 118°14'0 0.0
2016-Aug-19 18:33N 33°45' W 118°14'0 0.0
2016-Aug-19 17:33N 33°45' W 118°14'0 0.0
2016-Aug-19 16:33N 33°45' W 118°14'0 0.0
2016-Aug-19 15:33N 33°45' W 118°14'0 0.0
2016-Aug-19 14:33N 33°45' W 118°14'0 0.0
2016-Aug-19 13:33N 33°45' W 118°14'0 0.0
2016-Aug-19 12:33N 33°45' W 118°14'0 0.0
2016-Aug-19 11:33N 33°45' W 118°14'0 0.0
2016-Aug-19 10:30N 33°45' W 118°14'0 0.0
2016-Aug-19 09:33N 33°45' W 118°14'0 0.0
2016-Aug-19 08:33N 33°45' W 118°14'0 0.0
2016-Aug-19 07:33N 33°45' W 118°14'0 0.0
2016-Aug-19 06:33N 33°45' W 118°14'0 0.0
2016-Aug-19 05:33N 33°45' W 118°14'0 0.0
2016-Aug-19 04:33N 33°45' W 118°14'0 0.0
2016-Aug-19 03:30N 33°45' W 118°14'0 0.0
2016-Aug-19 02:33N 33°45' W 118°14'0 0.0
2016-Aug-19 01:33N 33°45' W 118°14'0 0.0
2016-Aug-19 00:27N 33°45' W 118°14'0 0.0
2016-Aug-18 23:30N 33°45' W 118°14'0 0.0
2016-Aug-18 22:33N 33°45' W 118°14'0 0.0
2016-Aug-18 21:27N 33°45' W 118°14'0 0.0
2016-Aug-18 20:33N 33°45' W 118°14'0 0.0
2016-Aug-18 19:33N 33°45' W 118°14'0 0.0
2016-Aug-18 18:27N 33°45' W 118°14'0 0.0
2016-Aug-18 17:24N 33°45' W 118°14'0 0.0
2016-Aug-18 16:24N 33°45' W 118°14'0 0.0
2016-Aug-18 15:33N 33°45' W 118°14'0 0.0
2016-Aug-18 14:33N 33°45' W 118°14'0 0.0
2016-Aug-18 13:33N 33°45' W 118°14'0 0.0
2016-Aug-18 12:30N 33°45' W 118°14'0 0.0
2016-Aug-18 11:27N 33°45' W 118°14'1 1.4
2016-Aug-18 10:33N 33°45' W 118°13'6 6.4
2016-Aug-18 09:33N 33°38' W 118°12'9 8.9
2016-Aug-18 08:33N 33°37' W 118°22'1010.2
2016-Aug-18 07:34N 33°42' W 118°33'1110.6
2016-Aug-18 06:33N 33°47' W 118°44'1616.0
2016-Aug-18 05:34N 33°55' W 119°01'1919.1
2016-Aug-18 04:34N 34°04' W 119°21'1919.3
2016-Aug-18 03:33N 34°09' W 119°44'3919.4
2016-Aug-18 01:33N 34°19' W 120°29'2619.8
2016-Aug-18 00:15N 34°26' W 120°59'1419.4
2016-Aug-17 23:32N 34°26' W 121°16'1919.8
2016-Aug-17 22:33N 34°26' W 121°40'  

Dump ship's entire track history